LFBX 181530Z AUTO 32008KT 270V360 CAVOK 27/13 Q1015

ElémentsDécodage
LFBX Station météo située sur l'aérodrome de PERIGUEUX Bassillac
181530Z émis le 18 du mois à 15h30 UTC
AUTO Bulletin édité par un automate
32008KT vent du 320°, 08 noeuds
270V360 vent de direction variable entre 270° et 360°
CAVOK Ceiling And Visibility OK
- Visibilité de 10 Km ou plus
- Pas de nuage au-dessous de 1500m ou au-dessous de l'altitude minimale du secteur la plus élevée (si>1500m) et absence de CB
- pas de temps présent significatif
27/13 température 27°C, point de rosée 13°C
 soit une humidité relative de 42%
Q1015 la pression au niveau de la mer (QNH) est de 1015 hPa